Time;durP1;ratioP1;P1;durP2;ratioP2;P2;SDS_P1;SDS_P2;PMS_P1;PMS_P2;Temp;Humidity;BMP_temperature;BMP_pressure;BME280_temperature;BME280_humidity;BME280_pressure;Samples;Min_cycle;Max_cycle;Signal;HPM_P1;HPM_P2
2021/11/07 00:14:32;;;;;;;64.65;30.23;;;;;;;3.50;77.52;99556.98;2163439;82;21020;-65
2021/11/07 00:17:34;;;;;;;63.50;30.43;;;;;;;3.51;77.45;99544.89;2182083;82;21031;-65
2021/11/07 00:20:39;;;;;;;62.93;30.15;;;;;;;3.51;77.54;99531.92;2182304;82;20981;-65
2021/11/07 00:29:52;;;;;;;60.67;29.30;;;;;;;3.50;77.24;99510.30;2182172;82;21483;-65
2021/11/07 00:33:03;;;;;;;64.82;30.43;;;;;;;3.52;77.45;99507.24;2163311;82;21001;-64
2021/11/07 00:42:21;;;;;;;60.95;30.52;;;;;;;3.49;77.34;99493.02;2163262;82;20960;-65
2021/11/07 00:45:09;;;;;;;65.57;30.65;;;;;;;3.46;77.28;99491.36;2163221;82;21032;-65
2021/11/07 00:54:22;;;;;;;59.77;28.07;;;;;;;3.44;77.34;99472.83;2163347;82;21472;-65
2021/11/07 00:57:21;;;;;;;60.38;27.62;;;;;;;3.42;77.29;99476.75;2163214;82;21452;-65
2021/11/07 01:00:28;;;;;;;63.85;27.55;;;;;;;3.42;77.49;99482.36;2163168;82;21519;-65
2021/11/07 01:03:24;;;;;;;61.48;27.58;;;;;;;3.40;77.67;99475.07;2173491;81;21005;-65
2021/11/07 01:06:25;;;;;;;61.90;27.67;;;;;;;3.38;77.63;99473.81;2201655;81;20989;-65
2021/11/07 01:09:27;;;;;;;58.30;26.07;;;;;;;3.36;77.92;99465.22;2201538;81;21055;-65
2021/11/07 01:12:29;;;;;;;53.20;25.95;;;;;;;3.34;77.82;99457.90;2201568;81;21577;-65
2021/11/07 01:15:30;;;;;;;57.48;25.35;;;;;;;3.32;77.95;99450.61;2201684;81;21001;-64
2021/11/07 01:18:34;;;;;;;55.70;24.27;;;;;;;3.29;77.90;99445.04;2201347;81;21555;-65
2021/11/07 01:21:39;;;;;;;57.95;25.17;;;;;;;3.29;77.86;99440.30;2201569;81;21049;-65
2021/11/07 01:24:43;;;;;;;59.67;23.50;;;;;;;3.28;77.72;99442.48;2173921;81;20993;-65
2021/11/07 01:27:43;;;;;;;53.30;23.32;;;;;;;3.26;77.78;99438.63;2173822;81;20984;-65
2021/11/07 01:33:49;;;;;;;53.65;23.65;;;;;;;3.25;77.93;99427.84;2174028;81;20989;-65
2021/11/07 01:36:58;;;;;;;;;;;;;;;3.26;77.97;99415.71;2203978;81;21021;-65
2021/11/07 01:40:04;;;;;;;56.13;22.10;;;;;;;3.28;78.06;99407.48;2173885;81;20101;-65
2021/11/07 01:42:58;;;;;;;55.40;22.10;;;;;;;3.30;77.86;99395.31;2173922;81;20985;-65
2021/11/07 01:49:08;;;;;;;53.73;22.98;;;;;;;3.35;77.45;99383.11;2173931;81;21013;-65
2021/11/07 01:52:08;;;;;;;55.08;23.15;;;;;;;3.32;77.38;99379.30;2173802;81;21036;-65
2021/11/07 01:55:15;;;;;;;55.38;23.73;;;;;;;3.36;77.41;99379.64;2173854;81;20984;-65
2021/11/07 01:58:13;;;;;;;57.20;22.60;;;;;;;3.41;77.10;99380.38;2173839;81;21002;-65
2021/11/07 02:01:14;;;;;;;55.78;22.20;;;;;;;3.38;77.05;99379.61;2202865;81;21008;-65
2021/11/07 02:04:16;;;;;;;52.60;21.55;;;;;;;3.38;77.02;99377.02;2210378;81;20985;-65
2021/11/07 02:07:17;;;;;;;45.60;21.20;;;;;;;3.38;77.21;99365.34;2210521;81;21511;-65
2021/11/07 02:10:19;;;;;;;53.53;21.23;;;;;;;3.38;77.09;99358.86;2210441;81;21028;-65
2021/11/07 02:13:20;;;;;;;47.17;19.67;;;;;;;3.29;77.26;99352.15;2210178;81;21794;-65
2021/11/07 02:16:22;;;;;;;46.37;19.30;;;;;;;3.33;77.41;99363.28;2210298;81;20983;-65
2021/11/07 02:19:23;;;;;;;45.30;18.00;;;;;;;3.29;77.46;99359.47;2210205;81;21040;-64
2021/11/07 02:22:25;;;;;;;43.63;19.00;;;;;;;3.30;77.67;99351.23;2209972;81;21081;-65
2021/11/07 02:25:27;;;;;;;43.15;16.77;;;;;;;3.29;77.66;99358.17;2210300;81;21059;-65
2021/11/07 02:28:28;;;;;;;44.98;17.60;;;;;;;3.33;77.51;99363.28;2210336;81;21011;-65
2021/11/07 02:31:30;;;;;;;44.83;18.35;;;;;;;3.28;77.48;99360.80;2210091;81;21032;-65
2021/11/07 02:34:32;;;;;;;48.52;20.45;;;;;;;3.26;77.38;99353.48;2210451;81;21016;-65
2021/11/07 02:37:34;;;;;;;43.42;18.27;;;;;;;3.21;77.53;99357.48;2210167;81;21028;-65
2021/11/07 02:40:35;;;;;;;43.20;18.70;;;;;;;3.22;77.60;99351.84;2210702;81;21491;-64
2021/11/07 02:43:37;;;;;;;41.42;17.65;;;;;;;3.19;77.45;99343.72;2210208;81;20960;-65
2021/11/07 02:46:38;;;;;;;45.58;19.32;;;;;;;3.17;77.77;99345.48;2210184;81;21519;-65
2021/11/07 02:49:41;;;;;;;42.65;18.73;;;;;;;3.16;77.42;99342.50;2210329;81;20941;-65
2021/11/07 02:52:43;;;;;;;47.00;19.82;;;;;;;3.17;77.28;99345.93;2210276;81;21031;-65
2021/11/07 02:55:45;;;;;;;;;;;;;;;3.15;77.34;99347.27;2212827;81;21068;-65
2021/11/07 02:58:47;;;;;;;46.45;18.40;;;;;;;3.15;77.41;99333.00;2210085;81;20104;-65
2021/11/07 03:01:48;;;;;;;46.18;18.82;;;;;;;3.10;77.57;99330.52;2212747;80;21650;-65
2021/11/07 03:04:50;;;;;;;42.75;18.77;;;;;;;3.14;77.44;99323.97;2220255;80;21104;-65
2021/11/07 03:07:52;;;;;;;42.30;18.90;;;;;;;3.15;77.32;99334.72;2220807;80;21554;-65
2021/11/07 03:10:53;;;;;;;47.40;18.90;;;;;;;3.11;77.16;99330.07;2220812;80;21103;-65
2021/11/07 03:13:59;;;;;;;46.88;19.37;;;;;;;3.12;77.40;99319.66;2220576;80;21542;-65
2021/11/07 03:16:58;;;;;;;45.70;18.85;;;;;;;3.21;77.02;99327.67;2190183;80;21012;-65
2021/11/07 03:20:00;;;;;;;55.12;23.27;;;;;;;3.23;76.76;99322.45;2220455;80;21483;-65
2021/11/07 03:23:01;;;;;;;51.90;20.62;;;;;;;3.10;76.82;99311.08;2220453;80;21052;-65
2021/11/07 03:26:08;;;;;;;50.33;22.25;;;;;;;3.03;76.66;99306.05;2220463;80;21642;-65
2021/11/07 03:29:08;;;;;;;68.95;27.05;;;;;;;2.92;76.51;99299.83;2190309;80;21476;-64
2021/11/07 03:32:16;;;;;;;50.17;20.02;;;;;;;2.77;76.44;99305.76;2220534;80;20996;-65
2021/11/07 03:35:17;;;;;;;53.50;21.05;;;;;;;2.62;76.49;99318.19;2190154;80;21016;-65
2021/11/07 03:38:16;;;;;;;59.18;25.10;;;;;;;2.50;76.80;99310.20;2190256;80;21484;-65
2021/11/07 03:41:17;;;;;;;53.45;21.95;;;;;;;2.46;76.80;99312.44;2220553;80;21088;-65
2021/11/07 03:44:19;;;;;;;53.98;23.60;;;;;;;2.36;76.47;99315.67;2220571;80;21052;-65
2021/11/07 03:47:21;;;;;;;48.15;20.48;;;;;;;2.29;76.41;99304.58;2220766;80;21382;-65
2021/11/07 03:50:25;;;;;;;44.60;20.17;;;;;;;2.28;76.40;99296.84;2220667;80;21079;-65
2021/11/07 03:53:26;;;;;;;46.90;20.08;;;;;;;2.06;76.38;99296.80;2190261;80;21032;-65
2021/11/07 03:56:27;;;;;;;53.73;22.53;;;;;;;1.98;76.85;99283.59;2220307;80;21064;-65
2021/11/07 03:59:29;;;;;;;52.13;21.55;;;;;;;1.95;76.53;99263.80;2220419;80;21387;-65
2021/11/07 04:02:30;;;;;;;48.98;19.85;;;;;;;1.88;76.75;99269.55;2216220;80;21119;-65
2021/11/07 04:05:32;;;;;;;45.60;19.73;;;;;;;1.73;77.43;99265.95;2210123;81;21020;-65
2021/11/07 04:08:33;;;;;;;46.15;19.87;;;;;;;1.65;77.52;99261.34;2210151;81;21564;-65
2021/11/07 04:11:35;;;;;;;51.15;20.37;;;;;;;1.55;77.72;99257.64;2210116;81;21060;-65
2021/11/07 04:14:36;;;;;;;50.73;19.73;;;;;;;1.53;78.01;99254.66;2210156;81;21080;-65
2021/11/07 04:17:38;;;;;;;48.93;19.80;;;;;;;1.46;78.58;99222.87;2210670;81;21031;-65
2021/11/07 04:20:39;;;;;;;45.00;18.90;;;;;;;1.46;78.58;99222.87;2210195;81;21501;-65
2021/11/07 04:23:41;;;;;;;44.20;17.73;;;;;;;1.58;79.01;99227.42;2210700;81;21842;-65
2021/11/07 04:26:42;;;;;;;42.90;17.30;;;;;;;1.67;79.46;99227.27;2210309;81;20984;-65
2021/11/07 04:29:44;;;;;;;45.65;17.25;;;;;;;1.81;79.59;99215.36;2210345;81;20996;-65
2021/11/07 04:32:45;;;;;;;41.45;16.30;;;;;;;1.89;79.83;99213.48;2210411;81;20980;-65
2021/11/07 04:35:47;;;;;;;41.40;16.12;;;;;;;1.96;80.15;99209.89;2210297;81;20977;-65
2021/11/07 04:38:48;;;;;;;38.67;16.73;;;;;;;2.04;80.08;99202.84;2210452;81;20937;-65
2021/11/07 04:41:50;;;;;;;41.20;16.48;;;;;;;2.12;79.98;99203.13;2210322;81;20970;-65
2021/11/07 04:44:52;;;;;;;37.63;15.58;;;;;;;2.19;80.17;99193.89;2210311;81;21463;-65
2021/11/07 04:47:54;;;;;;;;;;;;;;;2.28;80.16;99198.02;2212918;81;21008;-65
2021/11/07 04:50:55;;;;;;;40.75;16.15;;;;;;;2.34;79.85;99196.62;2210196;81;20097;-65
2021/11/07 04:53:57;;;;;;;38.42;15.90;;;;;;;2.36;79.76;99188.36;2210237;81;20992;-65
2021/11/07 04:56:58;;;;;;;39.67;16.67;;;;;;;2.35;79.82;99175.45;2210048;81;21079;-65
2021/11/07 05:00:00;;;;;;;38.92;15.65;;;;;;;2.35;79.78;99177.59;2210297;81;21036;-65
2021/11/07 05:03:01;;;;;;;41.63;16.45;;;;;;;2.38;79.66;99165.86;2210250;81;21031;-65
2021/11/07 05:06:03;;;;;;;38.85;16.55;;;;;;;2.39;79.47;99162.85;2210252;81;21024;-65
2021/11/07 05:09:06;;;;;;;37.37;15.90;;;;;;;2.42;79.25;99153.72;2210199;81;21587;-65
2021/11/07 05:12:08;;;;;;;37.05;14.90;;;;;;;2.41;79.32;99141.23;2188714;81;21856;-65
2021/11/07 05:15:10;;;;;;;39.58;15.93;;;;;;;2.42;79.46;99135.14;2210373;81;21012;-65
2021/11/07 05:18:12;;;;;;;35.40;14.85;;;;;;;2.47;79.43;99133.77;2210183;81;21598;-64
2021/11/07 05:21:14;;;;;;;35.80;14.43;;;;;;;2.47;79.23;99132.89;2210427;81;21048;-65
2021/11/07 05:24:16;;;;;;;38.78;15.70;;;;;;;2.52;79.15;99138.83;2210517;81;20984;-65
2021/11/07 05:27:17;;;;;;;35.03;14.55;;;;;;;2.54;79.07;99127.55;2210223;81;20973;-65
2021/11/07 05:30:18;;;;;;;34.00;14.58;;;;;;;2.53;78.90;99118.50;2210206;81;21551;-65
2021/11/07 05:33:20;;;;;;;38.80;15.38;;;;;;;2.58;78.82;99121.84;2210253;81;21024;-65
2021/11/07 05:36:21;;;;;;;38.00;15.08;;;;;;;2.58;78.70;99115.37;2210323;81;21483;-65
2021/11/07 05:39:23;;;;;;;39.08;15.58;;;;;;;2.55;78.52;99113.70;2210333;81;21025;-65
2021/11/07 05:42:24;;;;;;;41.88;16.37;;;;;;;2.57;78.90;99113.66;2210226;81;20972;-64
2021/11/07 05:45:26;;;;;;;36.00;14.95;;;;;;;2.67;78.57;99109.98;2210101;81;21012;-65
2021/11/07 05:48:27;;;;;;;35.73;15.53;;;;;;;2.61;78.18;99117.87;2210244;81;20972;-65
2021/11/07 05:51:29;;;;;;;41.70;17.42;;;;;;;2.59;78.31;99113.20;2210455;81;21008;-65
2021/11/07 05:54:30;;;;;;;43.60;18.30;;;;;;;2.53;78.35;99123.25;2210229;81;21064;-65
2021/11/07 05:57:32;;;;;;;42.40;16.75;;;;;;;2.58;78.38;99124.43;2210165;81;21060;-65
2021/11/07 06:00:34;;;;;;;37.07;15.30;;;;;;;2.56;77.86;99110.23;2210593;81;20984;-65
2021/11/07 06:03:35;;;;;;;39.65;15.38;;;;;;;2.46;77.73;99111.34;2217097;80;20981;-65
2021/11/07 06:06:37;;;;;;;36.13;14.60;;;;;;;2.48;78.53;99114.73;2221206;80;20977;-65
2021/11/07 06:09:38;;;;;;;33.95;14.75;;;;;;;2.57;78.43;99115.83;2220733;80;21088;-65
2021/11/07 06:12:40;;;;;;;39.90;16.00;;;;;;;2.73;78.51;99114.14;2220880;80;21015;-66
2021/11/07 06:15:41;;;;;;;39.08;17.35;;;;;;;2.77;77.93;99102.39;2220797;80;20983;-65
2021/11/07 06:18:42;;;;;;;40.45;16.05;;;;;;;2.87;78.01;99103.44;2220824;80;21550;-65
2021/11/07 06:21:46;;;;;;;34.73;15.38;;;;;;;2.87;77.56;99080.97;2220825;80;20988;-65
2021/11/07 06:24:47;;;;;;;32.45;12.90;;;;;;;2.90;78.05;99086.52;2220958;80;20993;-65
2021/11/07 06:27:49;;;;;;;35.57;13.67;;;;;;;3.02;78.13;99083.62;2221145;80;21571;-65
2021/11/07 06:30:51;;;;;;;34.58;13.53;;;;;;;3.12;78.35;99078.59;2220924;80;21055;-65
2021/11/07 06:33:53;;;;;;;35.55;13.93;;;;;;;3.24;78.39;99079.16;2220958;80;21036;-64
2021/11/07 06:36:55;;;;;;;31.60;12.90;;;;;;;3.36;78.28;99085.33;2221065;80;21040;-65
2021/11/07 06:39:56;;;;;;;35.17;13.58;;;;;;;3.56;78.13;99083.91;2220844;80;21111;-65
2021/11/07 06:42:58;;;;;;;33.40;12.88;;;;;;;3.70;77.76;99082.22;2220806;80;21095;-65
2021/11/07 06:45:59;;;;;;;34.15;13.03;;;;;;;3.84;77.66;99075.34;2221162;80;20976;-65
2021/11/07 06:49:01;;;;;;;37.20;13.50;;;;;;;3.98;77.44;99067.99;2220830;80;20968;-65
2021/11/07 06:52:03;;;;;;;34.03;13.33;;;;;;;4.15;77.48;99061.83;2221023;80;21555;-65
2021/11/07 06:55:05;;;;;;;;;;;;;;;4.36;77.15;99052.95;2223473;80;20976;-65
2021/11/07 06:58:07;;;;;;;34.27;12.60;;;;;;;4.53;76.84;99055.48;2220892;80;20085;-65
2021/11/07 07:01:08;;;;;;;29.07;11.63;;;;;;;4.68;76.12;99045.42;2220820;80;20944;-64
2021/11/07 07:04:09;;;;;;;30.08;12.07;;;;;;;4.84;75.96;99029.28;2213068;80;21060;-64
2021/11/07 07:07:13;;;;;;;33.05;13.43;;;;;;;5.01;75.54;99034.78;2210115;81;21080;-65
2021/11/07 07:10:20;;;;;;;30.92;11.65;;;;;;;5.18;75.50;99031.55;2188721;81;20985;-65
2021/11/07 07:28:39;;;;;;;29.05;11.40;;;;;;;6.50;74.28;99029.22;2210548;81;21107;-64
2021/11/07 07:34:43;;;;;;;26.85;10.32;;;;;;;6.97;73.05;99021.59;2188613;81;21606;-64
2021/11/07 07:37:42;;;;;;;24.40;9.35;;;;;;;7.21;72.99;99011.42;2188810;81;21024;-65
2021/11/07 07:40:44;;;;;;;26.97;10.40;;;;;;;7.39;71.00;98999.77;2210299;80;20985;-64
2021/11/07 07:43:45;;;;;;;24.90;9.20;;;;;;;7.51;71.43;98995.27;2210275;81;21453;-64
2021/11/07 07:46:47;;;;;;;24.25;8.90;;;;;;;7.71;71.50;98989.60;2210259;81;20972;-64
2021/11/07 07:49:49;;;;;;;23.85;8.80;;;;;;;7.85;70.03;98964.99;2210317;80;21539;-64
2021/11/07 07:52:51;;;;;;;23.83;8.43;;;;;;;7.88;70.29;98969.23;2210435;81;21012;-65
2021/11/07 07:55:53;;;;;;;24.23;8.63;;;;;;;7.72;69.19;98970.42;2210403;80;21000;-65
2021/11/07 07:58:55;;;;;;;22.02;7.87;;;;;;;7.77;70.25;98968.42;2210227;81;21052;-64
2021/11/07 08:01:58;;;;;;;23.47;8.05;;;;;;;7.88;69.41;98959.63;2210530;80;21020;-65
2021/11/07 08:05:00;;;;;;;24.92;9.18;;;;;;;8.02;69.13;98960.27;2219644;80;21563;-64
2021/11/07 08:08:01;;;;;;;22.13;7.55;;;;;;;8.07;68.03;98983.08;2220883;80;21063;-64
2021/11/07 08:11:04;;;;;;;24.77;7.97;;;;;;;8.15;67.33;98933.92;2220832;80;21083;-64
2021/11/07 08:14:05;;;;;;;24.30;7.97;;;;;;;8.21;67.17;98933.25;2220954;80;21068;-64
2021/11/07 08:17:07;;;;;;;22.02;7.72;;;;;;;8.28;67.53;98917.17;2220887;80;21527;-64
2021/11/07 08:20:09;;;;;;;22.75;8.13;;;;;;;8.42;67.77;98903.42;2221471;80;21011;-64
2021/11/07 08:23:10;;;;;;;24.65;8.78;;;;;;;8.63;66.98;98912.42;2221054;80;21494;-64
2021/11/07 08:26:13;;;;;;;25.97;9.03;;;;;;;8.69;66.47;98917.32;2221162;80;20945;-64
2021/11/07 08:29:16;;;;;;;23.25;7.80;;;;;;;8.64;67.86;98914.12;2221090;80;21011;-65
2021/11/07 08:32:18;;;;;;;24.02;8.55;;;;;;;8.65;65.69;98887.05;2221490;80;21058;-64
2021/11/07 08:35:21;;;;;;;23.42;8.20;;;;;;;8.53;66.68;98892.43;2220669;80;21503;-64
2021/11/07 08:38:26;;;;;;;23.07;8.48;;;;;;;8.55;66.29;98876.66;2221085;80;21038;-64
2021/11/07 08:41:28;;;;;;;25.68;8.78;;;;;;;8.56;66.89;98884.45;2192893;80;20958;-64
2021/11/07 09:06:03;;;;;;;23.25;8.28;;;;;;;10.14;62.65;98857.48;2188833;81;21523;-65
2021/11/07 09:08:57;;;;;;;24.65;8.90;;;;;;;10.11;62.71;98848.48;2188705;81;21554;-65
2021/11/07 09:12:00;;;;;;;24.02;8.10;;;;;;;9.78;62.12;98852.96;2210394;80;21060;-65
2021/11/07 09:15:02;;;;;;;25.35;9.80;;;;;;;9.58;63.08;98843.63;2210368;80;21019;-65
2021/11/07 09:18:04;;;;;;;22.93;8.70;;;;;;;9.49;63.33;98846.30;2210366;81;20964;-65
2021/11/07 09:21:09;;;;;;;;;;;;;;;9.40;62.88;98842.90;2213034;81;20964;-65
2021/11/07 09:24:22;;;;;;;24.70;7.92;;;;;;;9.28;63.31;98843.13;2188834;81;20133;-65
2021/11/07 09:30:26;;;;;;;23.30;7.67;;;;;;;9.24;62.82;98812.81;2188833;81;20976;-65
2021/11/07 09:36:28;;;;;;;24.80;8.88;;;;;;;9.25;63.54;98814.51;2188209;81;21056;-64
2021/11/07 09:45:45;;;;;;;24.77;9.28;;;;;;;9.39;63.95;98810.27;2210329;81;20957;-65
2021/11/07 09:48:39;;;;;;;28.00;9.33;;;;;;;9.40;62.03;98780.07;2188782;81;20985;-65
2021/11/07 09:51:39;;;;;;;23.10;8.85;;;;;;;9.40;62.20;98781.37;2188629;81;21048;-65
2021/11/07 09:54:41;;;;;;;22.45;8.28;;;;;;;9.48;62.69;98780.93;2210506;81;21488;-65
2021/11/07 09:57:43;;;;;;;22.70;8.15;;;;;;;9.48;62.06;98780.93;2210508;81;20964;-65
2021/11/07 10:00:45;;;;;;;22.15;8.30;;;;;;;9.51;62.60;98756.73;2210486;81;21016;-65
2021/11/07 10:03:47;;;;;;;24.12;8.65;;;;;;;9.68;63.12;98753.59;2213648;80;21077;-64
2021/11/07 10:06:51;;;;;;;23.47;8.50;;;;;;;9.82;62.13;98751.48;2220933;80;21542;-65
2021/11/07 10:09:57;;;;;;;22.95;8.33;;;;;;;9.81;61.77;98731.45;2192896;80;20960;-65
2021/11/07 10:12:57;;;;;;;27.15;9.65;;;;;;;9.81;61.78;98731.00;2192785;80;20961;-65
2021/11/07 10:16:01;;;;;;;24.18;8.85;;;;;;;9.86;61.70;98728.10;2192821;80;21024;-65
2021/11/07 10:19:04;;;;;;;22.48;7.78;;;;;;;9.81;60.83;98700.02;2192702;80;21020;-65
2021/11/07 10:22:05;;;;;;;26.05;10.50;;;;;;;9.77;61.07;98705.92;2192765;80;21016;-65
2021/11/07 10:25:14;;;;;;;22.98;8.28;;;;;;;9.82;62.37;98699.09;2221047;80;21537;-65
2021/11/07 10:28:10;;;;;;;23.02;9.05;;;;;;;9.88;61.65;98696.09;2192416;80;21028;-65
2021/11/07 10:31:15;;;;;;;21.93;8.13;;;;;;;9.89;61.79;98691.23;2221041;80;21059;-65
2021/11/07 10:40:27;;;;;;;24.47;9.45;;;;;;;10.15;61.13;98677.02;2220918;80;21570;-65
2021/11/07 10:52:33;;;;;;;24.20;8.30;;;;;;;10.93;59.51;98635.83;2192773;80;20972;-65
2021/11/07 10:55:35;;;;;;;23.35;7.95;;;;;;;10.89;58.55;98613.37;2220849;80;21052;-65
2021/11/07 10:58:36;;;;;;;21.17;7.53;;;;;;;10.86;58.60;98643.73;2221192;80;20971;-65
2021/11/07 11:01:38;;;;;;;23.18;8.35;;;;;;;10.79;58.75;98631.50;2221168;80;21045;-65
2021/11/07 11:04:39;;;;;;;28.10;10.38;;;;;;;10.75;58.08;98630.84;2220638;80;21638;-65
2021/11/07 11:07:41;;;;;;;24.43;7.83;;;;;;;10.79;57.44;98598.70;2221031;80;21056;-65
2021/11/07 11:23:07;;;;;;;23.10;7.92;;;;;;;10.75;57.75;98598.53;2192717;80;21017;-65
2021/11/07 11:26:03;;;;;;;22.00;7.62;;;;;;;11.06;58.02;98583.37;2192671;80;20972;-65
2021/11/07 11:32:12;;;;;;;23.30;7.90;;;;;;;11.88;55.74;98581.73;2193035;80;20960;-64
2021/11/07 11:35:17;;;;;;;23.20;8.03;;;;;;;12.10;55.06;98595.57;2192837;80;20980;-65
2021/11/07 11:44:20;;;;;;;21.90;6.65;;;;;;;11.69;53.12;98576.45;2192928;80;20968;-65
2021/11/07 11:56:38;;;;;;;22.05;6.78;;;;;;;10.77;54.87;98583.52;2192857;80;21015;-65
2021/11/07 12:02:46;;;;;;;21.45;7.03;;;;;;;10.63;55.42;98576.57;2192906;80;20972;-65
2021/11/07 12:05:45;;;;;;;24.52;7.37;;;;;;;10.81;55.37;98547.44;2193192;80;21024;-65
2021/11/07 12:08:58;;;;;;;20.12;6.35;;;;;;;10.92;55.51;98572.02;2193156;80;21059;-65
2021/11/07 12:11:54;;;;;;;19.87;6.78;;;;;;;11.00;54.15;98545.25;2193366;80;21032;-65
2021/11/07 12:14:51;;;;;;;23.83;7.85;;;;;;;11.33;55.83;98538.66;2193280;80;21055;-65
2021/11/07 12:17:53;;;;;;;24.85;8.80;;;;;;;11.51;53.30;98529.16;2223481;80;21516;-65
2021/11/07 12:20:56;;;;;;;23.18;7.75;;;;;;;11.46;54.36;98532.57;2223498;80;20957;-64
2021/11/07 12:23:57;;;;;;;27.70;8.58;;;;;;;11.33;54.50;98548.33;2193320;80;20988;-65
2021/11/07 12:26:59;;;;;;;25.80;8.18;;;;;;;11.01;53.75;98519.38;2223448;80;21004;-65
2021/11/07 12:30:01;;;;;;;22.05;6.67;;;;;;;10.75;54.43;98510.17;2223622;80;20983;-65
2021/11/07 12:33:03;;;;;;;;;;;;;;;10.49;54.29;98530.25;2225918;80;21003;-65
2021/11/07 12:36:13;;;;;;;22.90;6.47;;;;;;;10.29;55.15;98544.63;2223332;80;20128;-64
2021/11/07 12:42:14;;;;;;;22.27;6.80;;;;;;;10.00;54.71;98531.60;2193222;80;21004;-65
2021/11/07 12:45:14;;;;;;;20.80;6.37;;;;;;;9.95;55.08;98526.28;2193280;80;21007;-65
2021/11/07 12:48:17;;;;;;;19.87;6.37;;;;;;;9.92;54.70;98533.86;2223527;80;21538;-65
2021/11/07 12:51:20;;;;;;;22.70;6.72;;;;;;;9.87;55.54;98524.16;2223407;80;20956;-65
2021/11/07 12:54:22;;;;;;;23.52;7.47;;;;;;;9.83;55.00;98529.20;2223502;80;20969;-65
2021/11/07 12:57:24;;;;;;;22.35;6.78;;;;;;;9.77;55.85;98525.64;2223804;80;21030;-65
2021/11/07 13:00:25;;;;;;;23.00;6.83;;;;;;;9.71;55.99;98517.25;2223711;80;20983;-65
2021/11/07 13:03:27;;;;;;;23.20;7.25;;;;;;;9.69;56.08;98519.58;2223218;80;20996;-66
2021/11/07 13:06:28;;;;;;;21.62;6.90;;;;;;;9.66;55.69;98502.28;2210348;81;20981;-65
2021/11/07 13:21:58;;;;;;;25.90;8.65;;;;;;;9.68;55.01;98492.56;2188361;81;20989;-65
2021/11/07 13:25:08;;;;;;;27.02;8.98;;;;;;;9.66;55.62;98500.14;2188892;81;20969;-65
2021/11/07 13:27:55;;;;;;;25.77;7.42;;;;;;;9.66;55.87;98502.28;2188651;81;20974;-65
2021/11/07 13:30:52;;;;;;;25.70;7.70;;;;;;;9.67;55.73;98495.28;2188674;81;21033;-65
2021/11/07 13:33:53;;;;;;;25.70;7.80;;;;;;;9.67;55.82;98488.25;2210314;81;21491;-65
2021/11/07 13:36:57;;;;;;;21.20;6.80;;;;;;;9.65;55.15;98490.59;2210287;81;21027;-65
2021/11/07 13:39:58;;;;;;;25.43;7.75;;;;;;;9.63;55.19;98495.92;2188667;81;20981;-65
2021/11/07 13:42:59;;;;;;;22.75;7.33;;;;;;;9.62;54.47;98495.55;2210314;81;21805;-65
2021/11/07 13:46:01;;;;;;;23.95;6.80;;;;;;;9.59;53.07;98495.73;2210698;80;21016;-65
2021/11/07 13:49:03;;;;;;;24.87;7.12;;;;;;;9.56;53.11;98485.46;2210268;81;20992;-65
2021/11/07 13:52:05;;;;;;;23.30;6.97;;;;;;;9.53;53.32;98488.27;2210425;80;20988;-65
2021/11/07 13:55:06;;;;;;;23.73;6.80;;;;;;;9.50;53.55;98493.70;2210454;80;20996;-65
2021/11/07 13:58:07;;;;;;;26.10;8.10;;;;;;;9.46;53.59;98482.56;2210423;81;21052;-65
2021/11/07 14:01:09;;;;;;;24.57;7.58;;;;;;;9.45;53.66;98480.91;2210215;81;21021;-65
2021/11/07 14:04:10;;;;;;;27.87;8.60;;;;;;;9.44;53.51;98481.84;2212063;80;21546;-65
2021/11/07 14:07:12;;;;;;;26.57;8.23;;;;;;;9.40;54.34;98476.89;2220790;80;21079;-65
2021/11/07 14:10:16;;;;;;;28.05;8.23;;;;;;;9.38;54.23;98477.44;2220786;80;21515;-65
2021/11/07 14:13:16;;;;;;;24.67;7.65;;;;;;;9.37;54.52;98475.30;2192656;80;21511;-65
2021/11/07 14:16:18;;;;;;;26.90;8.68;;;;;;;9.36;54.00;98474.44;2221176;80;21016;-65
2021/11/07 14:19:19;;;;;;;31.93;11.22;;;;;;;9.30;54.39;98468.28;2221548;80;21466;-65
2021/11/07 14:22:21;;;;;;;27.00;7.75;;;;;;;9.29;55.09;98464.45;2221222;80;21011;-65
2021/11/07 14:25:24;;;;;;;28.80;9.73;;;;;;;9.26;54.61;98462.02;2221091;80;21032;-65
2021/11/07 14:28:29;;;;;;;29.92;10.18;;;;;;;9.21;55.12;98461.00;2220728;80;21020;-65
2021/11/07 14:40:46;;;;;;;21.50;6.80;;;;;;;9.10;55.41;98452.97;2192733;80;21511;-65
2021/11/07 14:46:51;;;;;;;23.42;7.45;;;;;;;9.06;55.78;98446.23;2192640;80;20977;-65
2021/11/07 14:49:59;;;;;;;21.93;7.25;;;;;;;9.04;55.55;98453.31;2192817;80;21023;-65
2021/11/07 14:52:56;;;;;;;27.27;9.15;;;;;;;9.03;56.05;98442.50;2192716;80;20992;-66
2021/11/07 14:56:08;;;;;;;21.93;7.08;;;;;;;9.01;55.89;98451.27;2192657;80;20984;-65
2021/11/07 15:02:07;;;;;;;24.07;7.78;;;;;;;8.92;56.21;98445.75;2192703;80;21025;-65
2021/11/07 15:05:11;;;;;;;23.90;7.85;;;;;;;8.93;56.25;98446.96;2192479;80;21571;-65
2021/11/07 15:08:14;;;;;;;24.05;8.08;;;;;;;8.90;56.02;98457.61;2165812;80;21008;-65
2021/11/07 15:11:29;;;;;;;22.30;7.25;;;;;;;8.86;56.42;98450.88;2190100;80;21489;-65
2021/11/07 15:14:29;;;;;;;24.77;8.75;;;;;;;8.87;56.88;98440.80;2190210;80;21499;-65
2021/11/07 15:17:28;;;;;;;23.60;8.03;;;;;;;8.84;56.97;98439.69;2190011;80;21589;-65
2021/11/07 15:20:29;;;;;;;29.10;9.75;;;;;;;8.84;56.90;98442.30;2189889;80;21114;-65
2021/11/07 15:23:27;;;;;;;25.20;8.00;;;;;;;8.83;57.16;98454.99;2190220;80;21009;-65
2021/11/07 15:26:32;;;;;;;23.85;8.38;;;;;;;8.82;57.02;98455.92;2220903;80;20992;-65
2021/11/07 15:29:35;;;;;;;23.75;8.08;;;;;;;8.78;56.67;98453.97;2190326;80;21012;-65
2021/11/07 15:32:37;;;;;;;24.77;8.38;;;;;;;8.79;56.74;98451.73;2190129;80;21039;-65
2021/11/07 15:35:39;;;;;;;24.85;8.73;;;;;;;8.80;57.04;98453.87;2190130;80;21526;-65
2021/11/07 15:38:40;;;;;;;25.25;8.55;;;;;;;8.79;56.94;98454.80;2220686;80;20972;-65
2021/11/07 15:41:42;;;;;;;27.35;9.90;;;;;;;8.75;56.83;98467.67;2220494;80;21064;-65
2021/11/07 15:44:47;;;;;;;25.00;8.40;;;;;;;8.72;57.51;98450.42;2220613;80;20980;-65
2021/11/07 15:47:49;;;;;;;28.70;10.20;;;;;;;8.70;57.63;98463.20;2190004;80;21021;-66
2021/11/07 16:06:20;;;;;;;27.90;9.98;;;;;;;8.61;57.86;98447.59;2169407;82;21031;-65
2021/11/07 16:15:27;;;;;;;21.57;7.30;;;;;;;8.56;57.95;98459.63;2109061;83;21075;-65
2021/11/07 16:18:25;;;;;;;24.60;8.68;;;;;;;8.53;57.58;98468.94;2163393;82;20965;-65
2021/11/07 16:21:28;;;;;;;22.95;7.10;;;;;;;8.53;58.28;98460.27;2109197;83;21491;-65
2021/11/07 16:24:30;;;;;;;23.98;8.10;;;;;;;8.51;57.70;98464.28;2163298;82;21503;-65
2021/11/07 16:27:32;;;;;;;25.30;8.48;;;;;;;8.50;57.92;98470.42;2182135;82;21478;-65
2021/11/07 16:30:33;;;;;;;25.52;9.88;;;;;;;8.47;58.57;98480.59;2182267;82;21012;-65
2021/11/07 16:33:39;;;;;;;26.42;9.20;;;;;;;8.42;58.56;98489.14;2182131;82;21040;-65
2021/11/07 16:36:42;;;;;;;28.05;9.88;;;;;;;8.42;58.48;98489.59;2108907;83;20999;-65
2021/11/07 16:39:48;;;;;;;27.62;10.18;;;;;;;8.40;58.47;98483.14;2164002;82;21491;-65
2021/11/07 16:42:45;;;;;;;30.32;11.30;;;;;;;8.39;58.99;98488.47;2163173;82;21521;-65
2021/11/07 16:45:48;;;;;;;30.08;9.73;;;;;;;8.38;58.69;98491.55;2182263;82;20985;-65
2021/11/07 16:48:51;;;;;;;29.02;11.18;;;;;;;8.37;58.64;98495.56;2182225;82;20981;-65
2021/11/07 16:51:57;;;;;;;29.50;10.55;;;;;;;8.36;59.16;98497.80;2163257;82;21035;-66
2021/11/07 16:54:59;;;;;;;26.85;9.75;;;;;;;8.32;59.49;98479.68;2163243;82;21015;-65
2021/11/07 16:57:59;;;;;;;29.52;10.53;;;;;;;8.29;59.70;98485.09;2109146;83;20964;-65
2021/11/07 17:01:02;;;;;;;30.37;11.73;;;;;;;8.29;59.63;98487.70;2182524;81;21032;-65
2021/11/07 17:07:12;;;;;;;36.65;16.27;;;;;;;8.30;59.68;98476.77;2173473;81;20109;-65
2021/11/07 17:10:10;;;;;;;28.47;9.98;;;;;;;8.32;59.87;98476.23;2173833;81;20974;-65
2021/11/07 17:13:15;;;;;;;25.57;9.05;;;;;;;8.33;59.84;98467.44;2201702;81;21591;-65
2021/11/07 17:19:23;;;;;;;30.32;11.85;;;;;;;8.33;59.93;98478.76;2201685;81;20957;-65
2021/11/07 17:28:34;;;;;;;27.22;9.88;;;;;;;8.30;59.61;98477.63;2173926;81;20970;-65
2021/11/07 17:31:36;;;;;;;24.70;8.25;;;;;;;8.29;59.81;98477.25;2173882;81;21020;-65
2021/11/07 17:37:41;;;;;;;27.40;9.20;;;;;;;8.26;59.76;98466.11;2201301;81;21068;-65